Time;durP1;ratioP1;P1;durP2;ratioP2;P2;SDS_P1;SDS_P2;PMS_P1;PMS_P2;Temp;Humidity;BMP_temperature;BMP_pressure;BME280_temperature;BME280_humidity;BME280_pressure;Samples;Min_cycle;Max_cycle;Signal;HPM_P1;HPM_P2
2022/07/24 00:01:39;;;;;;;9.15;7.60;;;26.20;52.30;;;;;;5033229;28;20037;-12
2022/07/24 00:04:05;;;;;;;9.73;7.60;;;26.10;52.70;;;;;;5033149;28;20100;-12
2022/07/24 00:06:32;;;;;;;8.80;7.03;;;26.00;53.10;;;;;;5032664;28;20473;-12
2022/07/24 00:08:59;;;;;;;10.02;7.40;;;25.90;53.50;;;;;;5033092;28;20048;-12
2022/07/24 00:11:25;;;;;;;11.15;7.70;;;25.80;54.00;;;;;;5033176;28;20033;-12
2022/07/24 00:13:51;;;;;;;11.00;7.82;;;25.60;55.00;;;;;;5032783;28;20548;-12
2022/07/24 00:16:17;;;;;;;10.57;7.70;;;25.50;54.90;;;;;;5031363;28;20030;-13
2022/07/24 00:18:43;;;;;;;11.98;7.60;;;25.40;54.90;;;;;;5033115;28;20551;-14
2022/07/24 00:21:09;;;;;;;9.82;7.10;;;25.40;54.90;;;;;;5033525;28;20036;-12
2022/07/24 00:23:35;;;;;;;10.65;7.05;;;25.30;55.00;;;;;;5032736;28;20381;-12
2022/07/24 00:26:01;;;;;;;8.73;7.60;;;25.20;55.10;;;;;;5033085;28;20029;-12
2022/07/24 00:28:27;;;;;;;11.85;10.30;;;25.20;55.00;;;;;;5032519;28;20026;-12
2022/07/24 00:30:56;;;;;;;13.02;10.38;;;25.10;55.00;;;;;;5032661;28;20040;-14
2022/07/24 00:33:22;;;;;;;12.35;9.05;;;25.10;55.10;;;;;;5032921;28;20182;-14
2022/07/24 00:35:48;;;;;;;9.25;7.63;;;25.10;55.20;;;;;;5032638;28;20444;-14
2022/07/24 00:38:14;;;;;;;13.10;7.30;;;25.00;55.20;;;;;;5032673;28;20037;-13
2022/07/24 00:40:40;;;;;;;8.40;6.60;;;24.90;55.60;;;;;;5032398;28;20081;-12
2022/07/24 00:43:06;;;;;;;11.57;6.50;;;24.90;55.80;;;;;;5032840;28;20099;-12
2022/07/24 00:45:32;;;;;;;12.00;6.18;;;24.90;56.00;;;;;;5032516;28;20394;-12
2022/07/24 00:47:58;;;;;;;7.82;6.00;;;24.80;55.70;;;;;;5032760;28;20523;-13
2022/07/24 00:50:25;;;;;;;8.23;5.97;;;24.70;55.80;;;;;;5031069;28;20057;-13
2022/07/24 00:52:52;;;;;;;7.45;6.00;;;24.70;55.90;;;;;;5032770;28;20057;-12
2022/07/24 00:55:20;;;;;;;7.85;5.22;;;24.60;55.70;;;;;;5031509;28;20025;-12
2022/07/24 00:57:48;;;;;;;8.15;5.47;;;24.60;55.60;;;;;;5032434;28;20029;-12
2022/07/24 01:00:16;;;;;;;6.43;5.40;;;24.60;55.40;;;;;;5034295;28;20363;-13
2022/07/24 01:02:42;;;;;;;8.63;5.60;;;24.60;55.40;;;;;;5036448;28;20028;-13
2022/07/24 01:05:09;;;;;;;7.00;5.20;;;24.60;55.30;;;;;;5034740;28;20022;-13
2022/07/24 01:07:37;;;;;;;6.68;5.20;;;24.60;55.20;;;;;;5036209;28;20025;-13
2022/07/24 01:10:04;;;;;;;8.15;5.57;;;24.60;55.30;;;;;;5035943;28;20023;-12
2022/07/24 01:12:36;;;;;;;8.98;5.18;;;24.50;55.40;;;;;;5035529;28;20489;-12
2022/07/24 01:15:04;;;;;;;7.07;5.00;;;24.50;55.60;;;;;;5035767;28;20033;-12
2022/07/24 01:17:32;;;;;;;8.05;5.60;;;24.50;55.80;;;;;;5035838;28;20116;-12
2022/07/24 01:19:59;;;;;;;5.40;4.88;;;24.40;56.00;;;;;;5035932;28;20060;-12
2022/07/24 01:22:26;;;;;;;6.20;4.65;;;24.40;56.30;;;;;;5035509;28;20512;-12
2022/07/24 01:24:53;;;;;;;7.20;4.82;;;24.40;56.00;;;;;;5036076;28;20159;-12
2022/07/24 01:27:21;;;;;;;6.45;4.85;;;24.30;56.20;;;;;;5035778;28;20485;-12
2022/07/24 01:29:47;;;;;;;6.38;4.75;;;24.30;56.00;;;;;;5035325;28;20025;-12
2022/07/24 01:32:14;;;;;;;6.35;4.30;;;24.30;56.20;;;;;;5035541;28;20025;-13
2022/07/24 01:34:40;;;;;;;6.13;4.63;;;24.20;56.00;;;;;;5035336;28;20065;-11
2022/07/24 01:37:06;;;;;;;6.95;4.40;;;24.20;56.00;;;;;;5035401;28;20041;-12
2022/07/24 01:39:32;;;;;;;6.05;4.47;;;24.20;56.00;;;;;;5035209;28;20124;-12
2022/07/24 01:41:58;;;;;;;6.82;4.38;;;24.10;56.10;;;;;;5035606;28;20122;-13
2022/07/24 01:44:24;;;;;;;6.78;4.80;;;24.10;56.20;;;;;;5035033;28;20443;-13
2022/07/24 01:46:50;;;;;;;7.18;4.90;;;24.20;56.30;;;;;;5035177;28;20056;-12
2022/07/24 01:49:16;;;;;;;7.63;4.53;;;24.20;56.40;;;;;;5034893;28;20022;-12
2022/07/24 01:51:42;;;;;;;5.53;4.40;;;24.20;56.20;;;;;;5035052;28;20064;-13
2022/07/24 01:54:08;;;;;;;5.40;4.35;;;24.20;56.20;;;;;;5035145;28;20027;-12
2022/07/24 01:56:34;;;;;;;6.85;4.45;;;24.10;56.30;;;;;;5035036;28;20033;-13
2022/07/24 01:59:00;;;;;;;7.53;4.70;;;24.10;56.30;;;;;;5034934;28;20113;-12
2022/07/24 02:01:27;;;;;;;7.57;5.28;;;24.00;56.50;;;;;;5035204;28;20017;-12
2022/07/24 02:03:53;;;;;;;5.95;4.72;;;24.00;56.90;;;;;;5033540;28;20026;-12
2022/07/24 02:06:19;;;;;;;7.28;4.47;;;23.90;57.10;;;;;;5034585;28;20032;-13
2022/07/24 02:08:45;;;;;;;7.13;4.90;;;23.80;57.20;;;;;;5034690;28;20060;-13
2022/07/24 02:11:11;;;;;;;7.70;4.95;;;23.70;57.40;;;;;;5033566;28;20061;-12
2022/07/24 02:13:37;;;;;;;5.63;4.45;;;23.60;57.50;;;;;;5034981;28;20018;-12
2022/07/24 02:16:03;;;;;;;5.32;4.10;;;23.50;57.70;;;;;;5034922;28;20058;-12
2022/07/24 02:18:29;;;;;;;5.22;4.30;;;23.40;57.80;;;;;;5034321;28;20104;-14
2022/07/24 02:20:55;;;;;;;6.03;4.68;;;23.40;58.00;;;;;;5034812;28;20025;-12
2022/07/24 02:23:21;;;;;;;8.15;4.50;;;23.40;58.00;;;;;;5034489;28;20074;-13
2022/07/24 02:25:49;;;;;;;5.50;4.13;;;23.40;58.20;;;;;;5034397;28;20017;-14
2022/07/24 02:28:15;;;;;;;5.43;4.45;;;23.40;58.30;;;;;;5034142;28;20512;-14
2022/07/24 02:30:42;;;;;;;10.35;5.55;;;23.30;58.30;;;;;;5034294;28;20078;-13
2022/07/24 02:33:09;;;;;;;6.07;4.50;;;23.30;58.80;;;;;;5034199;28;20486;-12
2022/07/24 02:35:36;;;;;;;7.68;4.50;;;23.30;58.70;;;;;;5034527;28;20052;-12
2022/07/24 02:38:03;;;;;;;5.03;4.15;;;23.20;58.70;;;;;;5034096;28;20034;-12
2022/07/24 02:40:31;;;;;;;5.88;4.38;;;23.20;58.80;;;;;;5033774;28;20037;-12
2022/07/24 02:42:57;;;;;;;8.20;5.00;;;23.10;58.90;;;;;;5034142;28;20033;-13
2022/07/24 02:45:23;;;;;;;7.25;5.32;;;23.10;59.00;;;;;;5033320;28;20025;-13
2022/07/24 02:47:55;;;;;;;8.50;5.15;;;23.00;59.30;;;;;;5032777;28;20499;-13
2022/07/24 02:50:25;;;;;;;5.75;4.35;;;23.00;59.70;;;;;;5033633;28;20032;-13
2022/07/24 02:52:51;;;;;;;7.28;4.72;;;22.90;59.50;;;;;;5034344;28;20617;-12
2022/07/24 02:55:17;;;;;;;6.80;4.50;;;22.90;59.70;;;;;;5034225;28;20087;-13
2022/07/24 02:57:44;;;;;;;6.70;4.30;;;22.80;59.80;;;;;;5033770;28;20116;-13
2022/07/24 03:00:13;;;;;;;7.28;4.95;;;22.80;59.90;;;;;;5033755;28;20044;-12
2022/07/24 03:02:39;;;;;;;7.40;4.75;;;22.80;60.40;;;;;;5034021;28;20025;-12
2022/07/24 03:05:06;;;;;;;6.93;5.00;;;22.60;61.10;;;;;;5033812;28;20104;-12
2022/07/24 03:07:36;;;;;;;6.40;4.68;;;22.60;61.90;;;;;;5033900;28;20087;-13
2022/07/24 03:10:03;;;;;;;7.95;4.63;;;22.50;61.90;;;;;;5033858;28;20044;-13
2022/07/24 03:12:30;;;;;;;5.78;4.63;;;22.40;62.10;;;;;;5033417;28;20069;-14
2022/07/24 03:14:55;;;;;;;6.38;5.00;;;22.40;62.20;;;;;;5034218;28;20021;-13
2022/07/24 03:17:21;;;;;;;7.38;4.72;;;22.30;62.40;;;;;;5033496;28;20044;-13
2022/07/24 03:19:47;;;;;;;7.30;5.13;;;22.20;62.50;;;;;;5033388;28;20048;-13
2022/07/24 03:22:13;;;;;;;5.47;4.60;;;22.20;62.70;;;;;;5033286;28;20029;-14
2022/07/24 03:24:39;;;;;;;7.25;4.78;;;22.10;62.80;;;;;;5033673;28;20104;-12
2022/07/24 03:27:05;;;;;;;8.15;5.32;;;22.10;63.60;;;;;;5033262;28;20501;-13
2022/07/24 03:29:32;;;;;;;7.80;5.40;;;22.00;63.70;;;;;;5033553;28;20033;-14
2022/07/24 03:31:57;;;;;;;6.50;5.10;;;21.90;64.10;;;;;;5033278;28;20040;-11
2022/07/24 03:34:23;;;;;;;5.78;4.70;;;21.90;64.30;;;;;;5032944;28;20112;-13
2022/07/24 03:36:49;;;;;;;8.50;5.10;;;21.90;64.40;;;;;;5033181;28;20021;-13
2022/07/24 03:39:15;;;;;;;6.68;5.13;;;21.80;64.70;;;;;;5033262;28;20057;-12
2022/07/24 03:41:42;;;;;;;7.65;5.70;;;21.80;64.80;;;;;;5033248;28;20504;-13
2022/07/24 03:44:07;;;;;;;7.65;6.20;;;21.70;64.80;;;;;;5033137;28;20036;-12
2022/07/24 03:46:34;;;;;;;8.85;5.70;;;21.80;65.10;;;;;;5032927;28;20030;-12
2022/07/24 03:49:00;;;;;;;8.05;5.90;;;21.70;64.70;;;;;;5033224;28;20021;-14
2022/07/24 03:51:27;;;;;;;7.78;5.28;;;21.70;64.90;;;;;;5033069;28;20397;-12
2022/07/24 03:53:53;;;;;;;9.18;5.30;;;21.70;64.60;;;;;;5033305;28;20100;-13
2022/07/24 03:56:19;;;;;;;7.10;5.10;;;21.70;64.70;;;;;;5032865;28;20021;-13
2022/07/24 03:58:45;;;;;;;8.30;6.00;;;21.70;64.80;;;;;;5033282;28;20021;-12
2022/07/24 04:01:11;;;;;;;8.10;5.75;;;21.70;65.40;;;;;;5033146;28;20048;-12
2022/07/24 04:03:37;;;;;;;6.63;5.50;;;21.70;65.10;;;;;;5032927;28;20029;-13
2022/07/24 04:06:05;;;;;;;7.85;6.28;;;21.60;64.90;;;;;;5033041;28;20036;-12
2022/07/24 04:08:32;;;;;;;10.13;6.53;;;21.70;64.90;;;;;;5032906;28;20033;-13
2022/07/24 04:10:58;;;;;;;7.97;5.85;;;21.70;64.90;;;;;;5032798;28;20033;-13
2022/07/24 04:13:27;;;;;;;6.88;4.85;;;21.80;64.80;;;;;;5033164;28;20029;-14
2022/07/24 04:15:53;;;;;;;7.80;5.40;;;21.90;64.70;;;;;;5032788;28;20032;-13
2022/07/24 04:18:19;;;;;;;9.50;5.88;;;21.90;64.70;;;;;;5032803;28;20026;-13
2022/07/24 04:20:46;;;;;;;8.85;5.72;;;21.90;64.70;;;;;;5033120;28;20029;-13
2022/07/24 04:23:12;;;;;;;7.53;5.93;;;21.90;64.70;;;;;;5032730;28;20041;-13
2022/07/24 04:25:38;;;;;;;10.75;6.88;;;21.90;64.80;;;;;;5032835;28;20545;-14
2022/07/24 04:28:04;;;;;;;8.15;5.57;;;21.90;64.90;;;;;;5033043;28;20110;-14
2022/07/24 04:30:30;;;;;;;8.70;5.20;;;22.00;64.60;;;;;;5032689;28;20026;-15
2022/07/24 04:32:57;;;;;;;8.18;5.28;;;22.00;64.50;;;;;;5032646;28;20026;-14
2022/07/24 04:35:23;;;;;;;7.35;5.38;;;22.00;64.50;;;;;;5035055;28;20447;-14
2022/07/24 04:37:50;;;;;;;7.43;5.15;;;22.20;64.40;;;;;;5035239;28;20485;-12
2022/07/24 04:40:16;;;;;;;8.00;6.22;;;22.30;64.20;;;;;;5036571;28;20076;-13
2022/07/24 04:42:41;;;;;;;8.73;5.50;;;22.40;64.40;;;;;;5036383;28;20190;-13
2022/07/24 04:45:09;;;;;;;8.55;5.68;;;22.40;64.60;;;;;;5036645;28;20029;-13
2022/07/24 04:47:36;;;;;;;17.90;8.13;;;22.50;64.10;;;;;;5036562;28;20034;-13
2022/07/24 04:50:05;;;;;;;8.63;5.38;;;22.60;63.80;;;;;;5036037;28;20471;-12
2022/07/24 04:52:31;;;;;;;8.10;5.80;;;22.80;63.40;;;;;;5035891;28;20125;-12
2022/07/24 04:54:57;;;;;;;8.80;5.97;;;22.90;63.30;;;;;;5036643;28;20476;-14
2022/07/24 04:57:22;;;;;;;9.48;6.10;;;23.00;62.90;;;;;;5036088;28;20076;-13
2022/07/24 04:59:49;;;;;;;9.27;6.57;;;23.10;62.80;;;;;;5034897;28;20056;-13
2022/07/24 05:02:15;;;;;;;7.90;6.22;;;23.20;62.80;;;;;;5035792;28;20374;-14
2022/07/24 05:04:41;;;;;;;9.65;6.38;;;23.30;62.70;;;;;;5036206;28;20080;-14
2022/07/24 05:07:07;;;;;;;9.52;5.95;;;23.40;62.60;;;;;;5035866;28;20561;-13
2022/07/24 05:09:33;;;;;;;7.82;5.88;;;23.40;62.50;;;;;;5036164;28;20026;-14
2022/07/24 05:11:59;;;;;;;9.30;6.47;;;23.50;62.30;;;;;;5036003;28;20447;-14
2022/07/24 05:14:25;;;;;;;9.65;6.15;;;23.60;62.10;;;;;;5035934;28;20065;-14
2022/07/24 05:16:51;;;;;;;8.48;5.88;;;23.70;62.30;;;;;;5035747;28;20065;-13
2022/07/24 05:19:17;;;;;;;7.20;5.57;;;23.90;61.90;;;;;;5034737;28;20033;-13
2022/07/24 05:21:43;;;;;;;6.93;5.63;;;24.00;61.60;;;;;;5035975;28;20064;-13
2022/07/24 05:24:09;;;;;;;10.40;5.82;;;24.10;61.60;;;;;;5035616;28;20034;-13
2022/07/24 05:26:35;;;;;;;8.95;6.35;;;24.30;60.90;;;;;;5035561;28;20021;-13
2022/07/24 05:29:03;;;;;;;7.93;5.50;;;24.40;60.80;;;;;;5034623;28;20453;-13
2022/07/24 05:31:29;;;;;;;8.07;5.80;;;24.50;60.70;;;;;;5035448;28;20120;-15
2022/07/24 05:33:55;;;;;;;8.57;6.80;;;24.60;60.70;;;;;;5034104;28;20103;-15
2022/07/24 05:36:21;;;;;;;9.50;6.53;;;24.70;60.60;;;;;;5035180;28;20036;-14
2022/07/24 05:38:48;;;;;;;12.15;6.95;;;24.80;60.40;;;;;;5035158;28;20028;-13
2022/07/24 05:41:14;;;;;;;10.68;7.50;;;24.90;60.50;;;;;;5035611;28;20029;-12
2022/07/24 05:43:39;;;;;;;11.75;7.20;;;24.90;60.20;;;;;;5035708;28;20362;-12
2022/07/24 05:46:06;;;;;;;9.95;7.10;;;25.10;60.20;;;;;;5034890;28;20528;-13
2022/07/24 05:48:32;;;;;;;11.77;7.45;;;25.10;60.50;;;;;;5034898;28;20031;-13
2022/07/24 05:50:59;;;;;;;12.48;7.07;;;25.20;60.50;;;;;;5035340;28;20029;-12
2022/07/24 05:53:25;;;;;;;9.80;6.43;;;25.30;60.30;;;;;;5035048;28;20025;-13
2022/07/24 05:55:51;;;;;;;7.93;6.50;;;25.40;60.30;;;;;;5033810;28;20026;-12
2022/07/24 05:58:18;;;;;;;8.38;6.43;;;25.50;60.50;;;;;;5034873;28;20029;-12
2022/07/24 06:00:45;;;;;;;9.43;7.10;;;25.60;60.10;;;;;;5034869;28;20478;-12
2022/07/24 06:03:11;;;;;;;8.60;6.20;;;25.80;59.50;;;;;;5034889;28;20065;-12
2022/07/24 06:05:37;;;;;;;7.30;5.97;;;25.90;58.80;;;;;;5034832;28;20056;-13
2022/07/24 06:08:03;;;;;;;10.20;6.53;;;26.10;58.50;;;;;;5034938;28;20485;-13
2022/07/24 06:10:29;;;;;;;9.63;6.50;;;26.30;58.10;;;;;;5034495;28;20057;-13
2022/07/24 06:12:55;;;;;;;13.40;6.90;;;26.40;57.80;;;;;;5034701;28;20033;-13
2022/07/24 06:15:21;;;;;;;9.65;7.38;;;26.60;57.30;;;;;;5034790;28;20028;-13
2022/07/24 06:17:47;;;;;;;11.02;8.18;;;26.80;56.90;;;;;;5034852;28;20095;-13
2022/07/24 06:20:16;;;;;;;9.48;7.13;;;26.90;56.50;;;;;;5034338;28;20482;-13
2022/07/24 06:22:43;;;;;;;9.63;6.85;;;27.00;56.10;;;;;;5034519;28;20052;-13
2022/07/24 06:25:10;;;;;;;9.75;7.53;;;27.00;55.60;;;;;;5034484;28;20034;-13
2022/07/24 06:27:48;;;;;;;9.35;6.50;;;27.10;55.20;;;;;;5034392;28;20429;-12
2022/07/24 06:30:23;;;;;;;9.98;7.45;;;27.20;54.90;;;;;;5032921;28;20473;-13
2022/07/24 06:32:52;;;;;;;10.07;7.18;;;27.30;54.30;;;;;;5034856;28;20033;-12
2022/07/24 06:35:18;;;;;;;9.40;6.78;;;27.50;53.90;;;;;;5034426;28;20048;-13
2022/07/24 06:37:44;;;;;;;8.40;6.35;;;27.60;53.40;;;;;;5033354;28;20132;-13
2022/07/24 06:40:10;;;;;;;8.88;7.03;;;27.70;53.60;;;;;;5034544;28;20546;-12
2022/07/24 06:42:36;;;;;;;9.57;7.07;;;27.90;53.30;;;;;;5033899;28;20030;-13
2022/07/24 06:45:04;;;;;;;9.38;7.20;;;28.00;53.00;;;;;;5034080;28;20075;-12
2022/07/24 06:47:30;;;;;;;9.98;7.03;;;28.20;52.80;;;;;;5034043;28;20545;-13
2022/07/24 06:49:56;;;;;;;10.40;7.32;;;28.30;52.50;;;;;;5034004;28;20057;-13
2022/07/24 06:52:23;;;;;;;7.75;6.00;;;28.40;52.10;;;;;;5034067;28;20035;-12
2022/07/24 06:54:49;;;;;;;11.13;7.47;;;28.50;51.80;;;;;;5034016;28;20026;-12
2022/07/24 06:57:16;;;;;;;9.23;6.53;;;28.60;51.50;;;;;;5033274;28;20112;-12
2022/07/24 06:59:42;;;;;;;8.68;6.47;;;28.80;51.10;;;;;;5033842;28;20052;-12
2022/07/24 07:02:09;;;;;;;8.20;6.28;;;28.90;50.90;;;;;;5034124;28;20112;-12
2022/07/24 07:04:35;;;;;;;9.45;6.50;;;29.00;50.60;;;;;;5033652;28;20071;-12
2022/07/24 07:07:02;;;;;;;8.55;6.25;;;29.20;50.40;;;;;;5033700;28;20034;-12
2022/07/24 07:09:28;;;;;;;8.95;6.68;;;29.40;50.00;;;;;;5033655;28;20014;-12
2022/07/24 07:11:55;;;;;;;9.10;7.07;;;29.40;49.50;;;;;;5033619;28;20477;-12
2022/07/24 07:14:21;;;;;;;9.00;7.53;;;29.50;49.30;;;;;;5033511;28;20029;-12
2022/07/24 07:16:48;;;;;;;10.63;6.97;;;29.60;49.10;;;;;;5034041;28;20030;-12
2022/07/24 07:19:14;;;;;;;10.20;7.13;;;29.70;48.90;;;;;;5033888;28;20033;-12
2022/07/24 07:21:40;;;;;;;8.93;6.78;;;29.80;48.90;;;;;;5033780;28;20051;-12
2022/07/24 07:24:07;;;;;;;12.35;8.65;;;30.00;48.50;;;;;;5033407;28;20029;-12
2022/07/24 07:26:33;;;;;;;8.15;6.22;;;30.10;48.20;;;;;;5033347;28;20025;-12
2022/07/24 07:28:59;;;;;;;9.23;6.00;;;30.30;47.80;;;;;;5033247;28;20026;-12
2022/07/24 07:31:26;;;;;;;6.75;5.50;;;30.50;46.00;;;;;;5033318;28;20029;-12
2022/07/24 07:33:52;;;;;;;9.27;5.97;;;30.80;44.90;;;;;;5033204;28;20543;-12
2022/07/24 07:36:18;;;;;;;6.70;5.05;;;31.00;44.20;;;;;;5033215;28;20563;-13
2022/07/24 07:38:45;;;;;;;10.60;5.50;;;31.20;43.70;;;;;;5033481;28;20053;-12
2022/07/24 07:41:11;;;;;;;7.10;5.28;;;31.50;42.40;;;;;;5033455;28;20108;-12
2022/07/24 07:43:39;;;;;;;8.20;5.55;;;31.60;40.60;;;;;;5033331;28;20474;-12
2022/07/24 07:46:05;;;;;;;6.80;5.05;;;31.80;40.80;;;;;;5033459;28;20051;-12
2022/07/24 07:48:31;;;;;;;6.72;5.40;;;31.90;41.50;;;;;;5033160;28;20430;-12
2022/07/24 07:50:57;;;;;;;8.63;5.20;;;32.20;41.40;;;;;;5032978;28;20061;-12
2022/07/24 07:53:23;;;;;;;5.97;4.95;;;32.30;41.10;;;;;;5033132;28;20033;-12
2022/07/24 07:55:51;;;;;;;7.88;5.13;;;32.40;39.30;;;;;;5032996;28;20104;-12
2022/07/24 07:58:22;;;;;;;8.80;5.45;;;32.50;38.20;;;;;;5032988;28;20038;-12
2022/07/24 08:00:49;;;;;;;8.55;5.47;;;32.50;38.10;;;;;;5033551;28;20026;-12
2022/07/24 08:03:16;;;;;;;7.65;5.28;;;32.70;38.60;;;;;;5032939;28;20035;-12
2022/07/24 08:05:41;;;;;;;5.55;4.90;;;32.80;39.30;;;;;;5032848;28;20374;-12
2022/07/24 08:08:07;;;;;;;7.43;5.03;;;33.00;39.00;;;;;;5033432;28;20556;-12
2022/07/24 08:10:33;;;;;;;6.38;4.95;;;33.20;38.50;;;;;;5036643;28;20071;-12
2022/07/24 08:13:00;;;;;;;6.55;5.10;;;33.50;38.20;;;;;;5036961;28;20073;-12
2022/07/24 08:15:26;;;;;;;8.73;4.90;;;33.60;37.80;;;;;;5037080;28;20029;-12
2022/07/24 08:17:56;;;;;;;8.02;5.45;;;33.70;37.70;;;;;;5037011;28;20025;-12
2022/07/24 08:20:23;;;;;;;7.45;5.25;;;33.90;37.20;;;;;;5036852;28;20068;-12
2022/07/24 08:22:49;;;;;;;5.72;4.60;;;34.10;37.20;;;;;;5037261;28;20080;-12
2022/07/24 08:25:16;;;;;;;7.82;4.90;;;34.20;37.30;;;;;;5037056;28;20029;-12
2022/07/24 08:27:42;;;;;;;6.05;4.80;;;34.40;36.80;;;;;;5036659;28;20043;-12
2022/07/24 08:30:10;;;;;;;8.38;5.15;;;34.50;36.80;;;;;;5036506;28;20021;-12
2022/07/24 08:32:37;;;;;;;6.53;5.13;;;34.80;36.80;;;;;;5036409;28;20552;-13
2022/07/24 08:35:04;;;;;;;6.07;4.78;;;34.90;36.30;;;;;;5036422;28;20108;-12
2022/07/24 08:37:34;;;;;;;7.30;4.78;;;35.10;36.10;;;;;;5036589;28;20140;-12
2022/07/24 08:40:00;;;;;;;7.57;4.85;;;35.20;36.10;;;;;;5036339;28;20052;-12
2022/07/24 08:42:26;;;;;;;7.80;4.80;;;35.40;35.50;;;;;;5036400;28;20177;-12
2022/07/24 08:44:52;;;;;;;5.38;4.53;;;35.60;35.00;;;;;;5036375;28;20120;-12
2022/07/24 08:47:19;;;;;;;5.72;4.70;;;35.60;35.20;;;;;;5036639;28;20026;-13
2022/07/24 08:49:48;;;;;;;5.45;4.93;;;35.70;34.90;;;;;;5036122;28;20024;-13
2022/07/24 08:52:17;;;;;;;5.72;5.00;;;35.80;34.00;;;;;;5036153;28;20044;-14
2022/07/24 08:54:43;;;;;;;7.15;5.38;;;35.90;34.20;;;;;;5036295;28;20037;-13
2022/07/24 08:57:09;;;;;;;9.02;5.47;;;35.70;34.70;;;;;;5036055;28;20025;-13
2022/07/24 08:59:35;;;;;;;6.05;4.80;;;35.90;34.10;;;;;;5036120;28;20022;-13
2022/07/24 09:02:01;;;;;;;7.10;5.55;;;36.00;33.90;;;;;;5036340;28;20025;-13
2022/07/24 09:04:41;;;;;;;6.38;5.38;;;36.10;34.20;;;;;;5035742;28;20474;-13
2022/07/24 09:07:16;;;;;;;6.22;5.10;;;36.10;34.30;;;;;;5036293;28;20381;-13
2022/07/24 09:09:44;;;;;;;5.20;4.70;;;36.30;34.00;;;;;;5036109;28;20029;-12
2022/07/24 09:12:13;;;;;;;7.07;5.20;;;36.50;34.10;;;;;;5035919;28;20037;-13
2022/07/24 09:14:42;;;;;;;7.78;5.30;;;36.80;33.70;;;;;;5035808;28;20040;-13
2022/07/24 09:17:11;;;;;;;7.30;5.30;;;37.10;33.20;;;;;;5036292;28;20033;-13
2022/07/24 09:19:54;;;;;;;8.77;5.47;;;37.20;32.90;;;;;;5035918;28;20114;-12
2022/07/24 09:22:24;;;;;;;;;;;37.30;31.60;;;;;;5035873;28;20021;-12
2022/07/24 09:25:18;;;;;;;6.10;5.32;;;37.40;32.90;;;;;;5035697;28;19904;-12
2022/07/24 09:27:53;;;;;;;7.00;5.40;;;37.30;32.40;;;;;;5035930;28;20030;-12
2022/07/24 09:30:31;;;;;;;7.30;5.10;;;37.20;33.10;;;;;;5035320;28;20071;-12
2022/07/24 09:33:14;;;;;;;6.90;5.28;;;37.30;30.50;;;;;;5035477;28;20057;-12
2022/07/24 09:35:42;;;;;;;5.57;5.03;;;37.00;32.90;;;;;;5035676;28;20047;-12
2022/07/24 09:38:11;;;;;;;5.53;4.97;;;37.10;31.60;;;;;;5035524;28;20109;-12
2022/07/24 09:40:41;;;;;;;6.60;5.05;;;37.30;32.20;;;;;;5034948;28;20053;-12
2022/07/24 09:43:18;;;;;;;7.20;5.70;;;37.40;31.70;;;;;;5035315;28;20052;-12
2022/07/24 09:46:09;;;;;;;11.68;5.40;;;37.40;31.40;;;;;;5035214;28;20079;-12
2022/07/24 09:48:38;;;;;;;7.50;5.20;;;37.50;32.00;;;;;;5034880;28;20041;-12
2022/07/24 09:51:09;;;;;;;6.15;5.32;;;37.60;32.00;;;;;;5034974;28;20022;-12
2022/07/24 09:53:36;;;;;;;8.55;5.45;;;37.90;31.20;;;;;;5035087;28;20029;-12
2022/07/24 09:56:10;;;;;;;6.05;5.45;;;37.90;31.50;;;;;;5035368;28;20051;-13
2022/07/24 09:58:40;;;;;;;6.20;5.60;;;38.00;31.00;;;;;;5034917;28;20461;-12
2022/07/24 10:01:08;;;;;;;7.28;5.70;;;38.20;31.80;;;;;;5035144;28;20407;-13
2022/07/24 10:03:40;;;;;;;6.65;5.60;;;38.50;31.10;;;;;;5035156;28;20033;-12
2022/07/24 10:06:08;;;;;;;7.80;5.80;;;38.60;30.80;;;;;;5034966;28;20386;-12
2022/07/24 10:08:35;;;;;;;6.80;5.68;;;38.70;30.90;;;;;;5034722;28;20421;-12
2022/07/24 10:11:02;;;;;;;7.60;6.20;;;38.70;31.10;;;;;;5034705;28;20155;-12
2022/07/24 10:13:29;;;;;;;7.38;5.93;;;38.70;31.20;;;;;;5034737;28;20385;-13
2022/07/24 10:16:09;;;;;;;8.77;6.38;;;38.60;30.60;;;;;;5034654;28;20038;-12
2022/07/24 10:18:49;;;;;;;8.00;6.13;;;38.50;30.50;;;;;;5034524;28;20053;-12
2022/07/24 10:21:16;;;;;;;8.60;6.35;;;38.90;30.20;;;;;;5033434;28;20140;-12
2022/07/24 10:24:03;;;;;;;7.15;5.95;;;38.80;30.50;;;;;;5035141;28;20030;-12
2022/07/24 10:26:40;;;;;;;8.65;6.53;;;38.60;29.90;;;;;;5034638;28;20021;-12
2022/07/24 10:29:16;;;;;;;7.90;5.75;;;38.70;30.10;;;;;;5034684;28;20048;-12
2022/07/24 10:31:48;;;;;;;6.95;5.85;;;39.00;29.90;;;;;;5033800;28;20036;-12
2022/07/24 10:34:26;;;;;;;7.55;6.00;;;39.10;30.80;;;;;;5033954;28;20504;-13
2022/07/24 10:37:21;;;;;;;7.85;6.15;;;39.50;30.00;;;;;;5034239;28;20029;-12
2022/07/24 10:39:47;;;;;;;9.20;6.10;;;39.50;30.00;;;;;;5034540;28;20374;-12
2022/07/24 10:42:14;;;;;;;7.50;6.20;;;39.90;29.80;;;;;;5034290;28;20041;-13
2022/07/24 10:44:40;;;;;;;8.93;6.20;;;39.80;30.00;;;;;;5034523;28;20080;-12
2022/07/24 10:47:08;;;;;;;8.02;6.25;;;39.90;30.00;;;;;;5032891;28;20033;-12
2022/07/24 10:49:38;;;;;;;7.00;6.30;;;39.90;30.20;;;;;;5032669;28;20432;-12
2022/07/24 10:52:04;;;;;;;7.30;6.05;;;40.10;29.90;;;;;;5034278;28;20034;-12
2022/07/24 10:54:30;;;;;;;8.23;6.30;;;40.40;29.90;;;;;;5034081;28;20051;-12
2022/07/24 10:56:56;;;;;;;8.07;6.35;;;40.40;29.50;;;;;;5033836;28;20541;-12
2022/07/24 10:59:33;;;;;;;7.15;6.30;;;40.60;29.00;;;;;;5033892;28;20036;-13
2022/07/24 11:02:28;;;;;;;7.13;6.10;;;40.70;28.80;;;;;;5033797;28;20477;-12
2022/07/24 11:05:31;;;;;;;10.30;6.30;;;40.90;28.00;;;;;;5033688;28;20087;-13
2022/07/24 11:08:12;;;;;;;9.40;6.50;;;41.00;27.90;;;;;;5011992;28;20065;-13
2022/07/24 11:10:53;;;;;;;8.48;6.60;;;41.10;27.50;;;;;;5011541;28;20428;-12
2022/07/24 11:13:41;;;;;;;7.85;6.18;;;40.90;28.80;;;;;;5011774;28;20113;-13
2022/07/24 11:16:15;;;;;;;7.95;6.28;;;41.00;28.00;;;;;;5011821;28;20029;-13
2022/07/24 11:18:41;;;;;;;9.95;6.40;;;41.30;28.50;;;;;;5012240;28;20145;-12
2022/07/24 11:21:08;;;;;;;8.60;6.38;;;41.50;28.30;;;;;;5011879;28;20025;-13
2022/07/24 11:23:35;;;;;;;7.78;6.40;;;41.40;27.20;;;;;;5012031;28;20056;-13
2022/07/24 11:26:31;;;;;;;7.43;6.18;;;41.60;27.50;;;;;;5011884;28;20026;-13
2022/07/24 11:29:13;;;;;;;8.13;6.15;;;41.50;27.40;;;;;;5012084;28;20057;-12
2022/07/24 11:31:40;;;;;;;;;;;41.90;27.80;;;;;;5012064;28;20050;-13
2022/07/24 11:34:09;;;;;;;9.77;6.68;;;42.00;26.60;;;;;;5011505;28;20469;-13
2022/07/24 11:36:35;;;;;;;7.10;5.90;;;42.40;26.80;;;;;;5011101;28;20042;-13
2022/07/24 11:39:03;;;;;;;7.28;6.43;;;42.40;26.40;;;;;;5011216;28;20049;-13
2022/07/24 11:41:45;;;;;;;7.90;6.57;;;42.40;26.80;;;;;;5011462;28;20429;-13
2022/07/24 11:44:12;;;;;;;9.25;6.70;;;42.30;26.00;;;;;;5028884;28;20034;-13
2022/07/24 11:46:40;;;;;;;8.25;6.25;;;42.20;26.00;;;;;;5032948;28;20028;-12
2022/07/24 11:49:09;;;;;;;7.80;6.25;;;42.30;26.00;;;;;;5032929;28;20404;-12
2022/07/24 11:51:50;;;;;;;6.90;6.03;;;42.40;25.10;;;;;;5033030;28;20087;-12
2022/07/24 11:54:25;;;;;;;8.60;6.18;;;42.40;24.90;;;;;;5033118;28;20026;-13
2022/07/24 11:56:53;;;;;;;8.38;6.50;;;42.70;25.60;;;;;;5033394;28;20022;-12
2022/07/24 11:59:22;;;;;;;9.82;6.30;;;42.80;25.40;;;;;;5033213;28;20524;-12
2022/07/24 12:01:48;;;;;;;7.97;6.60;;;42.90;25.30;;;;;;5033256;28;20029;-12
2022/07/24 12:04:20;;;;;;;6.95;6.22;;;42.90;25.00;;;;;;5032621;28;20064;-13
2022/07/24 12:06:47;;;;;;;7.38;6.25;;;42.80;25.50;;;;;;5033005;28;20033;-12
2022/07/24 12:09:13;;;;;;;9.23;6.60;;;43.10;25.60;;;;;;5032819;28;20038;-12
2022/07/24 12:11:39;;;;;;;9.40;6.70;;;42.90;25.50;;;;;;5033524;28;20021;-12
2022/07/24 12:14:16;;;;;;;7.88;5.82;;;43.00;25.40;;;;;;5033134;28;20021;-12
2022/07/24 12:16:43;;;;;;;8.48;6.55;;;43.40;25.30;;;;;;5032395;28;20124;-12
2022/07/24 12:19:24;;;;;;;6.38;5.78;;;44.10;24.80;;;;;;5033143;28;20072;-12
2022/07/24 12:21:52;;;;;;;7.65;5.80;;;44.40;24.60;;;;;;5033184;28;20026;-12
2022/07/24 12:24:23;;;;;;;10.60;6.20;;;44.40;24.50;;;;;;5032575;28;20064;-12
2022/07/24 12:26:54;;;;;;;7.93;5.67;;;44.00;24.40;;;;;;5033211;28;20030;-12
2022/07/24 12:29:21;;;;;;;10.10;5.88;;;44.00;24.80;;;;;;5033031;28;20033;-12
2022/07/24 12:31:47;;;;;;;8.38;5.90;;;44.40;24.30;;;;;;5032728;28;20455;-12
2022/07/24 12:34:14;;;;;;;7.05;6.35;;;44.60;23.90;;;;;;5032905;28;20095;-13
2022/07/24 12:36:40;;;;;;;7.35;6.05;;;44.90;23.60;;;;;;5033207;28;20424;-12
2022/07/24 12:39:07;;;;;;;8.10;6.05;;;45.10;23.30;;;;;;5032426;28;20054;-12
2022/07/24 12:41:43;;;;;;;7.32;5.85;;;45.30;23.10;;;;;;5032904;28;20021;-12
2022/07/24 12:44:09;;;;;;;6.60;5.90;;;45.40;23.20;;;;;;5032838;28;20084;-12
2022/07/24 12:46:42;;;;;;;7.78;5.82;;;45.50;22.90;;;;;;5032360;28;20021;-12
2022/07/24 12:49:14;;;;;;;7.80;6.07;;;45.60;23.00;;;;;;5032727;28;20021;-12
2022/07/24 12:51:47;;;;;;;8.15;5.63;;;45.70;22.00;;;;;;5032570;28;20067;-12